createdAt,value
2022-07-25T00:00:27.946Z,10.63
2022-07-25T00:02:55.895Z,11.32
2022-07-25T00:05:25.736Z,11.55
2022-07-25T00:07:53.679Z,11.63
2022-07-25T00:10:21.897Z,11.15
2022-07-25T00:12:50.069Z,9.90
2022-07-25T00:15:18.219Z,10.38
2022-07-25T00:17:46.396Z,10.65
2022-07-25T00:20:14.634Z,10.55
2022-07-25T00:22:44.066Z,10.88
2022-07-25T00:25:12.391Z,10.73
2022-07-25T00:27:40.422Z,11.07
2022-07-25T00:30:09.555Z,10.45
2022-07-25T00:32:37.661Z,14.93
2022-07-25T00:35:06.521Z,9.88
2022-07-25T00:37:34.529Z,9.75
2022-07-25T00:40:04.012Z,10.15
2022-07-25T00:42:32.082Z,10.90
2022-07-25T00:45:00.344Z,10.63
2022-07-25T00:47:28.307Z,10.10
2022-07-25T00:49:56.330Z,10.85
2022-07-25T00:52:24.766Z,10.38
2022-07-25T00:54:52.876Z,10.30
2022-07-25T00:57:22.180Z,10.30
2022-07-25T00:59:50.240Z,9.75
2022-07-25T01:02:18.384Z,10.30
2022-07-25T01:04:46.355Z,9.98
2022-07-25T01:07:15.044Z,9.70
2022-07-25T01:09:43.465Z,9.55
2022-07-25T01:12:11.507Z,9.27
2022-07-25T01:14:40.970Z,9.13
2022-07-25T01:17:08.887Z,8.25
2022-07-25T01:19:36.848Z,8.48
2022-07-25T01:22:06.709Z,7.63
2022-07-25T01:24:35.759Z,8.30
2022-07-25T01:27:03.943Z,8.25
2022-07-25T01:29:31.947Z,7.93
2022-07-25T01:32:00.016Z,8.00
2022-07-25T01:34:28.044Z,8.30
2022-07-25T01:36:55.966Z,8.35
2022-07-25T01:39:25.359Z,7.70
2022-07-25T01:41:53.329Z,8.25
2022-07-25T01:44:21.298Z,7.85
2022-07-25T01:46:49.487Z,7.78
2022-07-25T01:49:17.651Z,8.20
2022-07-25T01:51:45.707Z,8.00
2022-07-25T01:54:14.595Z,7.43
2022-07-25T01:56:46.950Z,8.10
2022-07-25T01:59:16.999Z,7.72
2022-07-25T02:01:45.279Z,8.07
2022-07-25T02:04:13.361Z,7.47
2022-07-25T02:06:41.988Z,8.05
2022-07-25T02:09:10.194Z,8.20
2022-07-25T02:11:38.183Z,8.25
2022-07-25T02:14:08.101Z,7.70
2022-07-25T02:16:36.401Z,8.20
2022-07-25T02:19:04.793Z,8.45
2022-07-25T02:21:32.951Z,7.90
2022-07-25T02:24:00.963Z,7.97
2022-07-25T02:26:28.894Z,8.02
2022-07-25T02:28:56.870Z,7.82
2022-07-25T02:31:26.443Z,7.57
2022-07-25T02:33:54.464Z,8.32
2022-07-25T02:36:22.687Z,8.38
2022-07-25T02:38:50.721Z,8.35
2022-07-25T02:41:18.803Z,8.02
2022-07-25T02:43:46.852Z,7.90
2022-07-25T02:46:15.035Z,8.00
2022-07-25T02:48:44.694Z,7.68
2022-07-25T02:51:13.038Z,8.27
2022-07-25T02:53:56.611Z,8.40
2022-07-25T02:56:26.288Z,8.38
2022-07-25T02:58:58.008Z,8.38
2022-07-25T03:01:26.074Z,8.55
2022-07-25T03:03:55.576Z,8.88
2022-07-25T03:06:23.574Z,8.52
2022-07-25T03:08:51.499Z,8.73
2022-07-25T03:11:19.725Z,8.13
2022-07-25T03:13:47.706Z,8.60
2022-07-25T03:16:15.824Z,8.55
2022-07-25T03:18:43.815Z,8.50
2022-07-25T03:21:13.181Z,8.45
2022-07-25T03:23:41.119Z,8.23
2022-07-25T03:26:08.809Z,8.45
2022-07-25T03:28:36.901Z,8.02
2022-07-25T03:31:04.852Z,8.35
2022-07-25T03:33:32.964Z,8.40
2022-07-25T03:36:00.799Z,9.10
2022-07-25T03:38:30.436Z,7.70
2022-07-25T03:40:58.256Z,8.10
2022-07-25T03:43:26.109Z,8.25
2022-07-25T03:45:53.789Z,8.23
2022-07-25T03:48:21.721Z,8.57
2022-07-25T03:50:49.561Z,7.97
2022-07-25T03:53:17.437Z,8.43
2022-07-25T03:55:46.704Z,8.50
2022-07-25T03:58:14.562Z,8.05
2022-07-25T04:00:42.526Z,8.05
2022-07-25T04:03:10.451Z,7.70
2022-07-25T04:05:38.300Z,7.20
2022-07-25T04:08:06.362Z,7.50
2022-07-25T04:10:34.464Z,8.10
2022-07-25T04:13:03.885Z,7.97
2022-07-25T04:15:31.838Z,8.00
2022-07-25T04:18:01.140Z,7.72
2022-07-25T04:20:30.039Z,7.68
2022-07-25T04:22:57.972Z,8.07
2022-07-25T04:25:25.763Z,8.25
2022-07-25T04:27:53.678Z,8.30
2022-07-25T04:30:24.194Z,8.43
2022-07-25T04:32:52.688Z,8.40
2022-07-25T04:35:20.599Z,7.93
2022-07-25T04:37:48.447Z,8.13
2022-07-25T04:40:16.597Z,8.18
2022-07-25T04:42:44.506Z,7.57
2022-07-25T04:45:12.858Z,7.68
2022-07-25T04:47:44.994Z,7.03
2022-07-25T04:52:40.898Z,7.20
2022-07-25T04:55:09.593Z,7.75
2022-07-25T04:57:38.268Z,7.72
2022-07-25T05:00:08.841Z,7.63
2022-07-25T05:02:37.316Z,7.63
2022-07-25T05:05:08.523Z,7.88
2022-07-25T05:07:49.081Z,7.50
2022-07-25T05:10:16.863Z,7.78
2022-07-25T05:12:44.634Z,7.63
2022-07-25T05:15:13.387Z,7.45
2022-07-25T05:17:41.248Z,7.68
2022-07-25T05:20:12.192Z,7.63
2022-07-25T05:22:40.017Z,7.00
2022-07-25T05:25:09.396Z,7.45
2022-07-25T05:27:37.277Z,7.65
2022-07-25T05:30:06.977Z,7.47
2022-07-25T05:32:34.940Z,7.13
2022-07-25T05:35:02.784Z,7.22
2022-07-25T05:37:31.990Z,7.20
2022-07-25T05:39:59.728Z,7.63
2022-07-25T05:42:27.896Z,7.15
2022-07-25T05:44:55.670Z,7.50
2022-07-25T05:47:23.543Z,7.72
2022-07-25T05:49:51.306Z,7.47
2022-07-25T05:52:19.140Z,7.10
2022-07-25T05:54:48.336Z,7.57
2022-07-25T05:57:16.121Z,7.28
2022-07-25T05:59:43.939Z,7.22
2022-07-25T06:02:11.923Z,7.10
2022-07-25T06:04:39.860Z,7.10
2022-07-25T06:07:07.653Z,7.28
2022-07-25T06:09:36.310Z,7.10
2022-07-25T06:12:06.493Z,7.50
2022-07-25T06:14:36.176Z,7.43
2022-07-25T06:17:04.006Z,7.05
2022-07-25T06:19:31.801Z,7.60
2022-07-25T06:21:59.596Z,7.88
2022-07-25T06:24:27.424Z,7.25
2022-07-25T06:26:55.165Z,7.25
2022-07-25T06:29:24.312Z,7.63
2022-07-25T06:31:52.148Z,7.97
2022-07-25T06:34:20.011Z,7.30
2022-07-25T06:36:47.855Z,7.88
2022-07-25T06:39:15.705Z,7.43
2022-07-25T06:41:43.501Z,7.22
2022-07-25T06:44:11.247Z,7.40
2022-07-25T06:46:40.659Z,6.97
2022-07-25T06:49:08.588Z,7.25
2022-07-25T06:51:36.412Z,7.90
2022-07-25T06:54:04.881Z,7.30
2022-07-25T06:56:33.045Z,7.88
2022-07-25T06:59:01.607Z,7.88
2022-07-25T07:01:30.290Z,9.88
2022-07-25T07:03:59.619Z,8.25
2022-07-25T07:06:27.417Z,9.27
2022-07-25T07:08:56.139Z,9.48
2022-07-25T07:11:24.122Z,10.52
2022-07-25T07:13:51.946Z,9.85
2022-07-25T07:16:19.846Z,11.38
2022-07-25T07:18:49.460Z,11.13
2022-07-25T07:21:21.441Z,10.30
2022-07-25T07:26:21.476Z,9.27
2022-07-25T07:28:49.280Z,8.48
2022-07-25T07:31:18.402Z,8.45
2022-07-25T07:33:46.728Z,8.10
2022-07-25T07:36:14.875Z,8.20
2022-07-25T07:38:44.577Z,8.00
2022-07-25T07:41:12.773Z,7.68
2022-07-25T07:43:40.597Z,8.13
2022-07-25T07:46:09.056Z,7.63
2022-07-25T07:48:37.301Z,7.20
2022-07-25T07:51:06.001Z,7.78
2022-07-25T07:53:51.253Z,7.45
2022-07-25T07:56:20.587Z,7.55
2022-07-25T07:58:48.567Z,7.07
2022-07-25T08:01:16.420Z,7.10
2022-07-25T08:03:44.301Z,6.80
2022-07-25T08:06:12.346Z,6.65
2022-07-25T08:08:40.211Z,7.47
2022-07-25T08:11:08.244Z,6.45
2022-07-25T08:13:38.169Z,7.10
2022-07-25T08:16:07.321Z,7.20
2022-07-25T08:18:35.250Z,7.60
2022-07-25T08:21:06.084Z,7.40
2022-07-25T08:23:35.448Z,7.60
2022-07-25T08:26:04.062Z,7.10
2022-07-25T08:28:31.907Z,7.50
2022-07-25T08:31:01.667Z,7.30
2022-07-25T08:33:29.619Z,6.95
2022-07-25T08:35:58.738Z,7.20
2022-07-25T08:38:30.600Z,7.15
2022-07-25T08:40:59.744Z,6.82
2022-07-25T08:43:29.282Z,7.05
2022-07-25T08:45:57.158Z,7.00
2022-07-25T08:48:27.750Z,6.82
2022-07-25T08:50:57.493Z,7.10
2022-07-25T08:53:35.088Z,6.57
2022-07-25T08:56:11.164Z,6.80
2022-07-25T08:58:43.971Z,6.90
2022-07-25T09:01:12.551Z,7.20
2022-07-25T09:03:43.181Z,7.45
2022-07-25T09:06:19.953Z,7.97
2022-07-25T09:08:55.722Z,7.93
2022-07-25T09:11:32.345Z,8.15
2022-07-25T09:14:02.086Z,7.75
2022-07-25T09:16:31.625Z,7.63
2022-07-25T09:19:12.655Z,7.32
2022-07-25T09:21:42.192Z,7.70
2022-07-25T09:24:12.871Z,7.40
2022-07-25T09:26:49.872Z,7.70
2022-07-25T09:29:19.598Z,8.40
2022-07-25T09:31:48.018Z,7.50
2022-07-25T09:34:31.054Z,7.13
2022-07-25T09:36:59.396Z,7.05
2022-07-25T09:39:34.932Z,6.78
2022-07-25T09:42:03.147Z,6.78
2022-07-25T09:44:31.312Z,6.03
2022-07-25T09:46:59.854Z,6.47
2022-07-25T09:49:40.277Z,6.97
2022-07-25T09:52:08.473Z,6.25
2022-07-25T09:54:36.641Z,5.95
2022-07-25T09:57:04.660Z,6.40
2022-07-25T09:59:34.387Z,6.28
2022-07-25T10:02:07.997Z,5.80
2022-07-25T10:04:45.819Z,5.75
2022-07-25T10:07:16.716Z,5.50
2022-07-25T10:09:46.737Z,5.40
2022-07-25T10:12:19.347Z,5.00
2022-07-25T10:15:06.906Z,4.60
2022-07-25T10:17:35.255Z,5.07
2022-07-25T10:20:06.569Z,4.97
2022-07-25T10:22:55.811Z,5.22
2022-07-25T10:25:24.763Z,4.80
2022-07-25T10:28:00.048Z,4.68
2022-07-25T10:30:30.167Z,4.70
2022-07-25T10:33:00.618Z,3.90
2022-07-25T10:35:30.257Z,3.70
2022-07-25T10:37:59.759Z,4.03
2022-07-25T10:40:34.770Z,3.70
2022-07-25T10:43:13.352Z,4.15
2022-07-25T10:45:50.391Z,3.80
2022-07-25T10:48:23.442Z,3.80
2022-07-25T10:50:58.094Z,3.38
2022-07-25T10:53:31.820Z,3.60
2022-07-25T10:56:06.188Z,3.60
2022-07-25T10:58:48.861Z,3.80
2022-07-25T11:01:21.626Z,3.65
2022-07-25T11:03:50.387Z,3.75
2022-07-25T11:06:32.222Z,3.85
2022-07-25T11:09:01.219Z,3.72
2022-07-25T11:11:40.453Z,3.80
2022-07-25T11:14:16.608Z,3.75
2022-07-25T11:16:44.910Z,3.75
2022-07-25T11:19:24.380Z,4.00
2022-07-25T11:21:55.778Z,4.07
2022-07-25T11:24:34.750Z,3.95
2022-07-25T11:27:02.577Z,4.47
2022-07-25T11:29:30.481Z,3.65
2022-07-25T11:32:00.544Z,3.53
2022-07-25T11:34:30.241Z,3.83
2022-07-25T11:37:02.621Z,3.42
2022-07-25T11:39:33.559Z,3.50
2022-07-25T11:42:03.603Z,3.15
2022-07-25T11:44:33.499Z,3.53
2022-07-25T11:47:01.691Z,3.00
2022-07-25T11:49:29.589Z,3.17
2022-07-25T11:51:57.478Z,3.70
2022-07-25T11:54:26.596Z,3.35
2022-07-25T11:56:54.387Z,3.45
2022-07-25T11:59:22.339Z,3.25
2022-07-25T12:01:50.178Z,3.80
2022-07-25T12:04:20.279Z,3.40
2022-07-25T12:06:49.714Z,3.40
2022-07-25T12:09:19.603Z,3.30
2022-07-25T12:11:50.768Z,3.40
2022-07-25T12:14:18.651Z,3.63
2022-07-25T12:16:46.605Z,3.30
2022-07-25T12:19:22.650Z,3.28
2022-07-25T12:21:50.441Z,3.95
2022-07-25T12:24:18.286Z,4.47
2022-07-25T12:26:46.076Z,3.45
2022-07-25T12:29:15.235Z,3.30
2022-07-25T12:31:42.989Z,3.13
2022-07-25T12:34:10.757Z,3.25
2022-07-25T12:36:43.943Z,3.30
2022-07-25T12:39:12.357Z,3.60
2022-07-25T12:41:42.429Z,3.22
2022-07-25T12:44:10.162Z,3.60
2022-07-25T12:46:44.591Z,3.13
2022-07-25T12:49:16.898Z,3.20
2022-07-25T12:51:44.865Z,3.13
2022-07-25T12:54:12.633Z,3.30
2022-07-25T12:56:40.405Z,3.30
2022-07-25T12:59:08.553Z,3.38
2022-07-25T13:01:36.744Z,6.28
2022-07-25T13:04:07.304Z,2.90
2022-07-25T13:06:38.594Z,3.30
2022-07-25T13:09:07.759Z,3.13
2022-07-25T13:11:36.001Z,3.35
2022-07-25T13:14:03.858Z,3.30
2022-07-25T13:16:31.702Z,3.42
2022-07-25T13:18:59.551Z,3.20
2022-07-25T13:21:29.520Z,3.53
2022-07-25T13:23:57.274Z,3.70
2022-07-25T13:26:25.169Z,3.90
2022-07-25T13:28:57.911Z,3.33
2022-07-25T13:31:27.553Z,3.38
2022-07-25T13:33:55.506Z,3.17
2022-07-25T13:36:23.262Z,3.45
2022-07-25T13:38:52.343Z,3.20
2022-07-25T13:41:20.119Z,3.67
2022-07-25T13:43:48.888Z,3.28
2022-07-25T13:46:16.782Z,3.50
2022-07-25T13:48:44.749Z,4.60
2022-07-25T13:51:12.675Z,3.60
2022-07-25T13:53:40.454Z,4.07
2022-07-25T13:56:09.690Z,3.90
2022-07-25T13:58:37.541Z,3.10
2022-07-25T14:01:07.253Z,3.40
2022-07-25T14:03:36.275Z,3.40
2022-07-25T14:06:04.501Z,4.10
2022-07-25T14:08:32.609Z,4.40
2022-07-25T14:11:00.336Z,3.50
2022-07-25T14:13:29.470Z,3.30
2022-07-25T14:15:57.245Z,3.00
2022-07-25T14:18:25.017Z,2.90
2022-07-25T14:20:52.784Z,3.13
2022-07-25T14:23:20.561Z,4.50
2022-07-25T14:25:48.388Z,4.90
2022-07-25T14:28:16.156Z,4.72
2022-07-25T14:30:45.267Z,4.40
2022-07-25T14:33:14.164Z,5.32
2022-07-25T14:35:41.921Z,4.80
2022-07-25T14:38:10.103Z,4.13
2022-07-25T14:40:37.941Z,4.20
2022-07-25T14:43:05.854Z,3.67
2022-07-25T14:45:34.137Z,3.50
2022-07-25T14:48:03.406Z,3.80
2022-07-25T14:50:31.141Z,3.90
2022-07-25T14:52:58.888Z,4.40
2022-07-25T14:55:27.144Z,4.80
2022-07-25T14:57:55.204Z,4.93
2022-07-25T15:00:29.243Z,4.68
2022-07-25T15:02:57.782Z,4.43
2022-07-25T15:05:26.929Z,4.20
2022-07-25T15:07:54.640Z,4.20
2022-07-25T15:10:22.681Z,3.83
2022-07-25T15:13:02.304Z,3.70
2022-07-25T15:15:38.485Z,3.90
2022-07-25T15:18:09.463Z,3.60
2022-07-25T15:20:42.728Z,3.28
2022-07-25T15:23:10.456Z,3.33
2022-07-25T15:28:26.379Z,2.90
2022-07-25T15:30:54.207Z,2.55
2022-07-25T15:33:22.299Z,3.30
2022-07-25T15:35:51.428Z,2.67
2022-07-25T15:38:19.830Z,2.75
2022-07-25T15:40:48.206Z,3.08
2022-07-25T15:43:16.090Z,3.08
2022-07-25T15:45:45.869Z,3.45
2022-07-25T15:48:16.126Z,2.80
2022-07-25T15:50:45.776Z,2.60
2022-07-25T15:53:15.609Z,2.58
2022-07-25T15:55:43.562Z,2.70
2022-07-25T15:58:12.182Z,2.55
2022-07-25T16:00:40.919Z,2.42
2022-07-25T16:03:09.590Z,2.75
2022-07-25T16:05:39.374Z,2.63
2022-07-25T16:08:08.620Z,2.80
2022-07-25T16:10:38.483Z,2.80
2022-07-25T16:13:06.388Z,2.45
2022-07-25T16:15:34.591Z,2.70
2022-07-25T16:18:03.200Z,2.75
2022-07-25T16:20:32.379Z,2.92
2022-07-25T16:23:00.484Z,4.32
2022-07-25T16:25:29.601Z,2.60
2022-07-25T16:27:59.118Z,3.20
2022-07-25T16:30:27.251Z,2.95
2022-07-25T16:32:55.651Z,5.30
2022-07-25T16:35:23.736Z,5.70
2022-07-25T16:37:51.983Z,5.40
2022-07-25T16:40:19.747Z,4.13
2022-07-25T16:42:49.638Z,2.85
2022-07-25T16:45:18.842Z,2.67
2022-07-25T16:47:47.557Z,2.65
2022-07-25T16:50:15.331Z,2.55
2022-07-25T16:52:43.082Z,2.47
2022-07-25T16:55:11.109Z,2.90
2022-07-25T16:57:39.984Z,2.63
2022-07-25T17:00:09.788Z,2.45
2022-07-25T17:02:39.739Z,2.58
2022-07-25T17:05:08.060Z,2.75
2022-07-25T17:07:36.259Z,2.50
2022-07-25T17:10:04.932Z,2.50
2022-07-25T17:12:32.675Z,2.40
2022-07-25T17:15:00.446Z,2.28
2022-07-25T17:17:28.592Z,2.25
2022-07-25T17:20:00.078Z,2.53
2022-07-25T17:22:28.097Z,2.33
2022-07-25T17:24:55.813Z,2.40
2022-07-25T17:27:23.921Z,2.75
2022-07-25T17:29:51.802Z,2.28
2022-07-25T17:32:19.559Z,2.30
2022-07-25T17:34:47.338Z,2.58
2022-07-25T17:37:16.574Z,2.20
2022-07-25T17:39:44.372Z,2.03
2022-07-25T17:42:12.237Z,2.20
2022-07-25T17:44:40.068Z,2.55
2022-07-25T17:47:07.844Z,2.97
2022-07-25T17:49:35.701Z,1.95
2022-07-25T17:52:03.465Z,2.17
2022-07-25T17:54:32.677Z,2.20
2022-07-25T17:57:00.524Z,2.38
2022-07-25T17:59:28.239Z,1.55
2022-07-25T18:01:56.036Z,1.73
2022-07-25T18:04:24.276Z,1.60
2022-07-25T18:06:52.170Z,1.60
2022-07-25T18:09:20.372Z,1.77
2022-07-25T18:11:49.565Z,1.83
2022-07-25T18:14:17.554Z,1.70
2022-07-25T18:16:45.844Z,1.70
2022-07-25T18:19:15.955Z,2.45
2022-07-25T18:21:45.049Z,1.40
2022-07-25T18:24:13.335Z,1.70
2022-07-25T18:26:41.185Z,1.80
2022-07-25T18:29:10.667Z,1.80
2022-07-25T18:31:38.634Z,1.55
2022-07-25T18:34:06.634Z,1.80
2022-07-25T18:36:35.267Z,1.48
2022-07-25T18:39:05.277Z,1.42
2022-07-25T18:41:34.123Z,1.83
2022-07-25T18:44:01.929Z,2.50
2022-07-25T18:46:32.821Z,1.75
2022-07-25T18:49:02.080Z,1.55
2022-07-25T18:51:29.861Z,1.80
2022-07-25T18:53:57.628Z,1.42
2022-07-25T18:56:25.551Z,1.25
2022-07-25T18:58:53.303Z,1.40
2022-07-25T19:01:24.240Z,2.17
2022-07-25T19:03:53.365Z,1.38
2022-07-25T19:06:21.139Z,1.33
2022-07-25T19:08:49.090Z,1.30
2022-07-25T19:11:16.876Z,1.40
2022-07-25T19:13:49.990Z,1.30
2022-07-25T19:16:19.151Z,1.40
2022-07-25T19:18:47.207Z,1.50
2022-07-25T19:21:16.813Z,1.30
2022-07-25T19:23:50.513Z,1.50
2022-07-25T19:26:22.821Z,1.25
2022-07-25T19:28:51.360Z,1.48
2022-07-25T19:31:19.202Z,1.33
2022-07-25T19:33:47.446Z,1.50
2022-07-25T19:36:16.638Z,1.50
2022-07-25T19:38:44.389Z,1.30
2022-07-25T19:41:12.249Z,3.22
2022-07-25T19:43:40.044Z,2.17
2022-07-25T19:46:10.845Z,1.20
2022-07-25T19:48:38.793Z,1.40
2022-07-25T19:51:06.849Z,1.50
2022-07-25T19:53:36.237Z,1.85
2022-07-25T19:56:06.684Z,1.80
2022-07-25T19:58:38.682Z,1.10
2022-07-25T20:01:07.758Z,1.33
2022-07-25T20:03:36.201Z,1.50
2022-07-25T20:06:08.079Z,1.30
2022-07-25T20:08:39.290Z,1.30
2022-07-25T20:11:07.519Z,1.35
2022-07-25T20:13:35.719Z,1.50
2022-07-25T20:16:04.000Z,1.08
2022-07-25T20:18:32.098Z,1.40
2022-07-25T20:21:00.851Z,1.33
2022-07-25T20:23:28.643Z,1.65
2022-07-25T20:25:57.853Z,1.27
2022-07-25T20:28:25.655Z,1.40
2022-07-25T20:30:54.056Z,1.20
2022-07-25T20:33:23.809Z,1.10
2022-07-25T20:35:51.585Z,1.35
2022-07-25T20:38:19.377Z,1.48
2022-07-25T20:40:49.692Z,1.50
2022-07-25T20:43:19.802Z,1.20
2022-07-25T20:45:48.040Z,1.20
2022-07-25T20:48:15.969Z,1.20
2022-07-25T20:50:43.920Z,1.20
2022-07-25T20:53:12.262Z,1.20
2022-07-25T20:55:40.223Z,1.30
2022-07-25T20:58:08.258Z,1.00
2022-07-25T21:00:37.635Z,1.20
2022-07-25T21:03:08.266Z,1.02
2022-07-25T21:05:37.642Z,1.30
2022-07-25T21:08:06.020Z,1.17
2022-07-25T21:10:33.904Z,1.00
2022-07-25T21:13:02.353Z,1.20
2022-07-25T21:15:30.818Z,1.30
2022-07-25T21:18:00.399Z,1.20
2022-07-25T21:20:28.430Z,1.25
2022-07-25T21:22:56.374Z,1.35
2022-07-25T21:25:24.079Z,1.00
2022-07-25T21:27:51.912Z,1.27
2022-07-25T21:30:19.701Z,1.35
2022-07-25T21:32:47.617Z,1.27
2022-07-25T21:35:18.101Z,3.90
2022-07-25T21:37:45.848Z,2.30
2022-07-25T21:40:14.099Z,1.40
2022-07-25T21:42:42.607Z,1.60
2022-07-25T21:45:11.188Z,1.27
2022-07-25T21:47:38.997Z,1.30
2022-07-25T21:50:27.552Z,1.38
2022-07-25T21:52:57.385Z,1.63
2022-07-25T21:55:25.338Z,1.50
2022-07-25T21:57:53.133Z,1.23
2022-07-25T22:00:21.537Z,1.55
2022-07-25T22:02:49.590Z,1.40
2022-07-25T22:05:19.135Z,1.38
2022-07-25T22:07:48.187Z,1.48
2022-07-25T22:10:19.299Z,1.40
2022-07-25T22:12:47.091Z,1.55
2022-07-25T22:15:15.311Z,1.75
2022-07-25T22:17:48.175Z,1.58
2022-07-25T22:20:18.035Z,1.88
2022-07-25T22:22:46.545Z,1.30
2022-07-25T22:25:14.431Z,1.60
2022-07-25T22:27:43.767Z,1.60
2022-07-25T22:30:18.290Z,1.70
2022-07-25T22:32:47.060Z,1.75
2022-07-25T22:35:15.231Z,1.50
2022-07-25T22:37:43.023Z,2.10
2022-07-25T22:40:11.840Z,2.10
2022-07-25T22:42:39.612Z,2.00
2022-07-25T22:45:09.763Z,1.85
2022-07-25T22:47:37.567Z,1.75
2022-07-25T22:50:06.796Z,1.77
2022-07-25T22:52:35.373Z,1.80
2022-07-25T22:55:03.119Z,1.90
2022-07-25T22:57:36.780Z,1.80
2022-07-25T23:00:09.790Z,2.00
2022-07-25T23:02:37.765Z,1.92
2022-07-25T23:05:06.809Z,1.73
2022-07-25T23:07:35.350Z,1.75
2022-07-25T23:10:03.497Z,1.77
2022-07-25T23:12:31.266Z,1.98
2022-07-25T23:14:59.033Z,1.92
2022-07-25T23:17:28.127Z,1.70
2022-07-25T23:19:57.266Z,1.58
2022-07-25T23:22:28.196Z,1.70
2022-07-25T23:24:56.374Z,1.60
2022-07-25T23:27:25.291Z,1.50
2022-07-25T23:29:53.220Z,1.70
2022-07-25T23:32:21.257Z,1.60
2022-07-25T23:34:50.390Z,1.90
2022-07-25T23:37:18.217Z,1.52
2022-07-25T23:39:45.963Z,1.63
2022-07-25T23:42:13.715Z,1.67
2022-07-25T23:44:42.036Z,1.40
2022-07-25T23:47:12.487Z,1.58
2022-07-25T23:49:41.025Z,1.50
2022-07-25T23:52:10.251Z,1.60
2022-07-25T23:54:40.474Z,1.50
2022-07-25T23:57:08.855Z,1.40
2022-07-25T23:59:37.140Z,1.50
